createdAt,value
2019-03-15T00:01:46.951Z,5.33
2019-03-15T00:04:21.844Z,5.70
2019-03-15T00:06:56.572Z,5.90
2019-03-15T00:09:31.427Z,5.33
2019-03-15T00:12:06.535Z,5.60
2019-03-15T00:14:41.353Z,6.05
2019-03-15T00:17:16.703Z,5.77
2019-03-15T00:19:51.593Z,6.05
2019-03-15T00:22:26.895Z,5.78
2019-03-15T00:25:01.725Z,5.92
2019-03-15T00:27:36.284Z,5.83
2019-03-15T00:30:12.861Z,6.47
2019-03-15T00:32:47.291Z,6.03
2019-03-15T00:35:22.129Z,6.12
2019-03-15T00:37:57.359Z,5.80
2019-03-15T00:40:32.047Z,6.72
2019-03-15T00:43:06.818Z,12.65
2019-03-15T00:45:42.037Z,8.15
2019-03-15T00:48:16.780Z,7.27
2019-03-15T00:50:51.560Z,7.60
2019-03-15T00:53:26.706Z,6.75
2019-03-15T00:56:02.141Z,7.20
2019-03-15T00:58:37.041Z,7.65
2019-03-15T01:01:12.040Z,7.42
2019-03-15T01:03:47.316Z,7.20
2019-03-15T01:06:22.029Z,7.50
2019-03-15T01:08:57.060Z,7.30
2019-03-15T01:11:31.466Z,7.05
2019-03-15T01:14:06.164Z,7.78
2019-03-15T01:16:41.021Z,7.55
2019-03-15T01:19:15.945Z,7.47
2019-03-15T01:21:51.541Z,7.75
2019-03-15T01:24:26.354Z,8.00
2019-03-15T01:27:01.097Z,7.37
2019-03-15T01:29:35.913Z,7.37
2019-03-15T01:32:10.661Z,7.35
2019-03-15T01:34:49.682Z,6.95
2019-03-15T01:37:24.403Z,8.10
2019-03-15T01:39:59.376Z,8.43
2019-03-15T01:42:34.320Z,8.17
2019-03-15T01:45:09.078Z,8.33
2019-03-15T01:47:43.482Z,8.50
2019-03-15T01:50:18.336Z,8.63
2019-03-15T01:52:53.137Z,8.35
2019-03-15T01:55:28.180Z,7.90
2019-03-15T01:58:03.102Z,8.00
2019-03-15T02:00:38.805Z,7.87
2019-03-15T02:03:13.888Z,8.30
2019-03-15T02:05:49.122Z,8.58
2019-03-15T02:08:23.887Z,7.65
2019-03-15T02:10:59.098Z,8.65
2019-03-15T02:13:33.673Z,8.23
2019-03-15T02:16:08.943Z,7.78
2019-03-15T02:18:44.340Z,7.80
2019-03-15T02:21:19.376Z,8.93
2019-03-15T02:23:53.890Z,8.25
2019-03-15T02:26:28.519Z,8.30
2019-03-15T02:29:03.588Z,7.55
2019-03-15T02:31:38.596Z,8.70
2019-03-15T02:34:13.407Z,8.10
2019-03-15T02:36:48.387Z,8.35
2019-03-15T02:39:23.499Z,8.30
2019-03-15T02:41:59.055Z,8.08
2019-03-15T02:44:34.332Z,7.97
2019-03-15T02:47:09.053Z,7.92
2019-03-15T02:49:44.140Z,8.80
2019-03-15T02:52:18.818Z,8.70
2019-03-15T02:54:54.541Z,7.95
2019-03-15T02:57:30.425Z,8.38
2019-03-15T03:00:05.201Z,8.13
2019-03-15T03:02:40.117Z,8.33
2019-03-15T03:05:15.371Z,7.85
2019-03-15T03:07:49.266Z,8.93
2019-03-15T03:10:24.207Z,9.15
2019-03-15T03:12:59.113Z,8.38
2019-03-15T03:15:33.660Z,8.45
2019-03-15T03:18:08.467Z,9.00
2019-03-15T03:20:43.001Z,8.65
2019-03-15T03:23:17.886Z,9.10
2019-03-15T03:25:53.127Z,9.00
2019-03-15T03:28:28.081Z,9.35
2019-03-15T03:31:02.867Z,9.18
2019-03-15T03:33:37.400Z,9.05
2019-03-15T03:36:12.574Z,8.75
2019-03-15T03:38:47.242Z,9.08
2019-03-15T03:41:23.155Z,9.05
2019-03-15T03:43:58.070Z,9.38
2019-03-15T03:46:33.172Z,8.90
2019-03-15T03:49:07.856Z,9.58
2019-03-15T03:51:42.217Z,9.13
2019-03-15T03:54:16.576Z,9.23
2019-03-15T03:56:51.420Z,9.15
2019-03-15T03:59:25.841Z,8.90
2019-03-15T04:02:00.453Z,9.45
2019-03-15T04:04:35.317Z,9.40
2019-03-15T04:07:10.252Z,9.13
2019-03-15T04:09:45.078Z,9.05
2019-03-15T04:12:19.986Z,8.50
2019-03-15T04:14:54.473Z,8.30
2019-03-15T04:17:29.420Z,8.40
2019-03-15T04:20:04.206Z,7.30
2019-03-15T04:22:39.012Z,7.80
2019-03-15T04:25:13.785Z,7.62
2019-03-15T04:27:49.425Z,7.95
2019-03-15T04:30:24.904Z,8.05
2019-03-15T04:32:59.792Z,8.10
2019-03-15T04:35:34.785Z,7.85
2019-03-15T04:38:09.920Z,7.70
2019-03-15T04:40:44.436Z,7.67
2019-03-15T04:43:18.829Z,7.62
2019-03-15T04:45:53.698Z,7.92
2019-03-15T04:48:28.285Z,7.33
2019-03-15T04:51:03.318Z,7.75
2019-03-15T04:53:37.888Z,7.40
2019-03-15T04:56:12.755Z,8.03
2019-03-15T04:58:47.375Z,7.37
2019-03-15T05:01:21.975Z,7.08
2019-03-15T05:03:56.964Z,7.03
2019-03-15T05:06:31.610Z,7.53
2019-03-15T05:09:06.706Z,7.20
2019-03-15T05:11:41.921Z,6.97
2019-03-15T05:14:16.634Z,7.47
2019-03-15T05:16:51.339Z,7.10
2019-03-15T05:19:25.744Z,8.00
2019-03-15T05:22:00.499Z,7.33
2019-03-15T05:24:34.834Z,7.37
2019-03-15T05:27:09.720Z,6.93
2019-03-15T05:29:44.494Z,7.53
2019-03-15T05:32:19.519Z,6.90
2019-03-15T05:34:53.842Z,7.43
2019-03-15T05:37:29.009Z,7.20
2019-03-15T05:40:03.822Z,7.75
2019-03-15T05:42:38.889Z,7.60
2019-03-15T05:45:14.182Z,7.58
2019-03-15T05:47:49.613Z,7.12
2019-03-15T05:50:24.367Z,6.90
2019-03-15T05:52:59.129Z,6.78
2019-03-15T05:55:33.590Z,6.55
2019-03-15T05:58:08.216Z,7.37
2019-03-15T06:00:43.135Z,6.75
2019-03-15T06:03:18.002Z,6.55
2019-03-15T06:05:52.374Z,6.80
2019-03-15T06:08:27.675Z,7.30
2019-03-15T06:11:02.589Z,7.23
2019-03-15T06:13:37.380Z,7.28
2019-03-15T06:16:12.289Z,7.03
2019-03-15T06:18:47.067Z,6.87
2019-03-15T06:21:22.250Z,7.28
2019-03-15T06:23:56.933Z,7.43
2019-03-15T06:26:32.104Z,6.62
2019-03-15T06:29:08.631Z,7.03
2019-03-15T06:31:44.167Z,6.87
2019-03-15T06:34:18.708Z,7.03
2019-03-15T06:36:53.824Z,6.67
2019-03-15T06:39:28.255Z,6.65
2019-03-15T06:42:02.843Z,6.65
2019-03-15T06:44:37.875Z,6.40
2019-03-15T06:47:12.738Z,7.22
2019-03-15T06:49:47.541Z,7.85
2019-03-15T06:52:21.554Z,6.75
2019-03-15T06:54:56.772Z,7.30
2019-03-15T06:57:32.249Z,7.08
2019-03-15T07:00:07.165Z,7.53
2019-03-15T07:02:41.712Z,7.45
2019-03-15T07:05:35.887Z,6.58
2019-03-15T07:08:10.665Z,6.58
2019-03-15T07:10:45.763Z,6.20
2019-03-15T07:13:20.477Z,6.75
2019-03-15T07:15:54.786Z,7.03
2019-03-15T07:18:29.994Z,6.72
2019-03-15T07:21:04.642Z,7.62
2019-03-15T07:23:39.792Z,7.22
2019-03-15T07:26:14.605Z,6.70
2019-03-15T07:28:50.156Z,6.60
2019-03-15T07:31:24.879Z,6.75
2019-03-15T07:33:59.586Z,7.22
2019-03-15T07:36:37.412Z,6.97
2019-03-15T07:39:12.977Z,7.25
2019-03-15T07:41:48.073Z,7.08
2019-03-15T07:44:26.300Z,7.28
2019-03-15T07:47:00.783Z,7.08
2019-03-15T07:49:35.393Z,7.45
2019-03-15T07:52:10.392Z,6.97
2019-03-15T07:54:45.096Z,6.80
2019-03-15T07:57:20.108Z,6.97
2019-03-15T07:59:54.655Z,6.50
2019-03-15T08:02:29.520Z,6.77
2019-03-15T08:05:03.952Z,7.10
2019-03-15T08:07:44.762Z,7.65
2019-03-15T08:10:14.394Z,6.80
2019-03-15T08:12:49.846Z,6.67
2019-03-15T08:15:24.921Z,7.15
2019-03-15T08:18:00.593Z,7.55
2019-03-15T08:20:35.624Z,7.58
2019-03-15T08:23:10.261Z,7.17
2019-03-15T08:25:46.415Z,7.30
2019-03-15T08:28:21.043Z,7.15
2019-03-15T08:30:56.030Z,7.72
2019-03-15T08:33:30.659Z,7.37
2019-03-15T08:36:05.510Z,7.55
2019-03-15T08:38:47.405Z,7.30
2019-03-15T08:41:16.456Z,7.55
2019-03-15T08:43:51.260Z,7.05
2019-03-15T08:46:25.964Z,7.67
2019-03-15T08:49:00.881Z,7.67
2019-03-15T08:51:38.706Z,7.90
2019-03-15T08:54:13.472Z,7.40
2019-03-15T08:56:48.247Z,7.10
2019-03-15T08:59:23.239Z,8.50
2019-03-15T09:01:57.607Z,7.12
2019-03-15T09:04:32.722Z,7.28
2019-03-15T09:07:07.465Z,7.22
2019-03-15T09:09:42.494Z,7.90
2019-03-15T09:12:17.395Z,8.18
2019-03-15T09:14:52.002Z,7.80
2019-03-15T09:17:26.379Z,7.40
2019-03-15T09:20:01.066Z,8.20
2019-03-15T09:22:37.931Z,7.70
2019-03-15T09:25:19.183Z,7.47
2019-03-15T09:27:48.163Z,7.80
2019-03-15T09:30:24.216Z,8.00
2019-03-15T09:32:59.080Z,7.78
2019-03-15T09:35:34.372Z,7.25
2019-03-15T09:38:10.815Z,7.37
2019-03-15T09:40:46.565Z,7.45
2019-03-15T09:43:21.463Z,7.37
2019-03-15T09:45:56.597Z,6.92
2019-03-15T09:48:31.613Z,7.60
2019-03-15T09:51:06.550Z,7.17
2019-03-15T09:53:41.770Z,7.80
2019-03-15T09:56:16.601Z,7.90
2019-03-15T09:58:51.120Z,7.78
2019-03-15T10:01:34.909Z,7.55
2019-03-15T10:04:02.276Z,7.47
2019-03-15T10:06:37.256Z,7.37
2019-03-15T10:09:12.816Z,7.58
2019-03-15T10:11:47.517Z,7.42
2019-03-15T10:14:21.999Z,8.08
2019-03-15T10:16:58.995Z,7.70
2019-03-15T10:19:34.024Z,7.85
2019-03-15T10:22:08.891Z,7.75
2019-03-15T10:24:43.961Z,8.10
2019-03-15T10:27:18.809Z,7.08
2019-03-15T10:29:53.707Z,8.05
2019-03-15T10:32:28.538Z,7.33
2019-03-15T10:35:03.420Z,8.38
2019-03-15T10:37:38.465Z,7.72
2019-03-15T10:40:15.923Z,7.92
2019-03-15T10:42:50.794Z,7.85
2019-03-15T10:45:25.473Z,7.97
2019-03-15T10:47:59.973Z,8.18
2019-03-15T10:50:34.981Z,7.80
2019-03-15T10:53:09.828Z,7.37
2019-03-15T10:55:44.593Z,7.62
2019-03-15T10:58:18.995Z,8.08
2019-03-15T11:00:53.966Z,8.50
2019-03-15T11:03:29.018Z,8.05
2019-03-15T11:06:03.588Z,8.45
2019-03-15T11:08:37.922Z,8.13
2019-03-15T11:11:14.971Z,8.43
2019-03-15T11:13:48.809Z,8.30
2019-03-15T11:16:23.459Z,8.90
2019-03-15T11:18:58.520Z,8.20
2019-03-15T11:21:33.194Z,7.83
2019-03-15T11:24:07.641Z,8.08
2019-03-15T11:26:42.394Z,7.53
2019-03-15T11:29:18.137Z,7.15
2019-03-15T11:31:52.553Z,7.37
2019-03-15T11:34:27.670Z,8.13
2019-03-15T11:37:03.585Z,7.72
2019-03-15T11:39:38.259Z,6.90
2019-03-15T11:42:14.985Z,7.28
2019-03-15T11:44:50.104Z,7.45
2019-03-15T11:47:24.645Z,7.33
2019-03-15T11:49:59.571Z,7.30
2019-03-15T11:52:34.315Z,7.20
2019-03-15T11:55:11.135Z,6.90
2019-03-15T11:57:45.847Z,6.97
2019-03-15T12:00:20.552Z,7.05
2019-03-15T12:02:56.042Z,7.10
2019-03-15T12:05:30.632Z,7.30
2019-03-15T12:08:05.734Z,6.93
2019-03-15T12:10:40.885Z,7.30
2019-03-15T12:13:18.118Z,7.63
2019-03-15T12:15:53.162Z,7.40
2019-03-15T12:18:27.810Z,7.70
2019-03-15T12:21:02.022Z,7.60
2019-03-15T12:23:36.481Z,8.23
2019-03-15T12:26:11.347Z,8.27
2019-03-15T12:28:46.566Z,7.97
2019-03-15T12:31:21.515Z,7.85
2019-03-15T12:33:56.208Z,8.45
2019-03-15T12:36:30.915Z,7.75
2019-03-15T12:39:05.630Z,7.92
2019-03-15T12:41:40.589Z,8.20
2019-03-15T12:44:15.934Z,8.00
2019-03-15T12:46:50.324Z,8.05
2019-03-15T12:49:25.826Z,8.13
2019-03-15T12:52:00.492Z,8.33
2019-03-15T12:54:35.826Z,8.53
2019-03-15T12:57:10.429Z,8.15
2019-03-15T12:59:45.354Z,8.60
2019-03-15T13:02:20.456Z,8.55
2019-03-15T13:04:55.155Z,8.45
2019-03-15T13:07:30.109Z,8.65
2019-03-15T13:10:05.460Z,8.08
2019-03-15T13:12:40.298Z,8.53
2019-03-15T13:15:16.008Z,8.17
2019-03-15T13:17:50.629Z,8.35
2019-03-15T13:20:25.256Z,7.87
2019-03-15T13:23:00.344Z,8.45
2019-03-15T13:25:36.046Z,8.15
2019-03-15T13:28:10.527Z,7.70
2019-03-15T13:30:45.533Z,8.50
2019-03-15T13:33:21.089Z,8.65
2019-03-15T13:35:55.855Z,7.62
2019-03-15T13:38:30.453Z,8.13
2019-03-15T13:41:05.426Z,8.00
2019-03-15T13:43:40.341Z,8.13
2019-03-15T13:46:15.403Z,8.40
2019-03-15T13:48:51.351Z,7.77
2019-03-15T13:51:26.194Z,8.08
2019-03-15T13:54:01.031Z,8.05
2019-03-15T13:56:35.742Z,7.40
2019-03-15T13:59:10.692Z,8.90
2019-03-15T14:01:45.589Z,8.35
2019-03-15T14:04:20.524Z,8.58
2019-03-15T14:06:55.988Z,8.30
2019-03-15T14:09:30.766Z,8.03
2019-03-15T14:12:05.516Z,8.73
2019-03-15T14:17:20.665Z,8.63
2019-03-15T14:19:55.380Z,8.57
2019-03-15T14:22:30.225Z,8.17
2019-03-15T14:25:05.200Z,8.03
2019-03-15T14:27:39.267Z,8.45
2019-03-15T14:30:14.734Z,8.25
2019-03-15T14:32:49.628Z,8.20
2019-03-15T14:35:25.208Z,9.03
2019-03-15T14:38:00.156Z,8.53
2019-03-15T14:40:35.209Z,7.80
2019-03-15T14:43:10.114Z,7.80
2019-03-15T14:45:45.098Z,8.43
2019-03-15T14:48:20.647Z,8.55
2019-03-15T14:50:55.470Z,8.55
2019-03-15T14:53:30.342Z,8.25
2019-03-15T14:56:05.123Z,8.23
2019-03-15T14:58:39.882Z,8.13
2019-03-15T15:01:14.544Z,8.58
2019-03-15T15:03:49.254Z,8.28
2019-03-15T15:06:23.328Z,7.85
2019-03-15T15:08:58.204Z,8.18
2019-03-15T15:11:33.070Z,8.13
2019-03-15T15:14:10.603Z,7.97
2019-03-15T15:16:45.179Z,7.90
2019-03-15T15:19:20.104Z,8.43
2019-03-15T15:21:54.951Z,8.08
2019-03-15T15:24:29.504Z,8.37
2019-03-15T15:27:04.532Z,7.70
2019-03-15T15:29:39.435Z,8.43
2019-03-15T15:32:14.149Z,7.97
2019-03-15T15:34:48.798Z,8.08
2019-03-15T15:37:25.395Z,8.15
2019-03-15T15:40:00.441Z,7.75
2019-03-15T15:42:35.266Z,8.03
2019-03-15T15:45:10.195Z,8.45
2019-03-15T15:47:46.715Z,8.67
2019-03-15T15:50:21.245Z,8.68
2019-03-15T15:52:56.024Z,8.15
2019-03-15T15:55:31.061Z,7.78
2019-03-15T15:58:17.234Z,8.63
2019-03-15T16:00:41.923Z,9.10
2019-03-15T16:03:17.131Z,8.68
2019-03-15T16:05:51.588Z,9.00
2019-03-15T16:08:26.659Z,8.70
2019-03-15T16:11:01.402Z,8.65
2019-03-15T16:13:35.833Z,8.40
2019-03-15T16:16:10.515Z,8.50
2019-03-15T16:18:45.296Z,8.60
2019-03-15T16:21:20.248Z,9.13
2019-03-15T16:23:55.080Z,9.00
2019-03-15T16:26:29.914Z,9.23
2019-03-15T16:29:04.503Z,9.00
2019-03-15T16:31:39.085Z,8.37
2019-03-15T16:34:13.807Z,9.65
2019-03-15T16:36:48.828Z,8.98
2019-03-15T16:39:24.373Z,9.13
2019-03-15T16:41:59.589Z,8.65
2019-03-15T16:44:33.978Z,9.35
2019-03-15T16:47:09.067Z,9.08
2019-03-15T16:49:46.275Z,9.58
2019-03-15T16:52:22.076Z,8.80
2019-03-15T16:54:56.873Z,9.18
2019-03-15T16:57:31.514Z,8.55
2019-03-15T17:00:06.103Z,8.75
2019-03-15T17:02:40.953Z,9.13
2019-03-15T17:05:16.003Z,9.00
2019-03-15T17:07:50.753Z,8.85
2019-03-15T17:10:25.655Z,9.08
2019-03-15T17:13:00.602Z,8.40
2019-03-15T17:15:35.421Z,9.43
2019-03-15T17:18:09.416Z,8.23
2019-03-15T17:20:44.416Z,9.05
2019-03-15T17:23:18.949Z,8.45
2019-03-15T17:25:54.058Z,9.05
2019-03-15T17:28:28.944Z,8.55
2019-03-15T17:31:09.618Z,8.25
2019-03-15T17:33:40.194Z,9.05
2019-03-15T17:36:14.866Z,8.25
2019-03-15T17:38:49.964Z,8.30
2019-03-15T17:41:24.506Z,8.13
2019-03-15T17:44:00.256Z,8.03
2019-03-15T17:46:34.406Z,8.77
2019-03-15T17:49:09.340Z,7.95
2019-03-15T17:51:45.367Z,8.00
2019-03-15T17:54:20.921Z,8.53
2019-03-15T17:56:55.989Z,7.75
2019-03-15T17:59:30.595Z,8.20
2019-03-15T18:02:08.148Z,8.18
2019-03-15T18:04:42.896Z,8.35
2019-03-15T18:07:17.568Z,7.95
2019-03-15T18:09:52.906Z,8.65
2019-03-15T18:12:27.491Z,8.75
2019-03-15T18:15:02.251Z,8.13
2019-03-15T18:17:37.073Z,8.20
2019-03-15T18:20:12.066Z,8.23
2019-03-15T18:22:46.743Z,8.83
2019-03-15T18:25:21.686Z,8.13
2019-03-15T18:27:56.552Z,8.23
2019-03-15T18:30:30.688Z,8.55
2019-03-15T18:33:05.540Z,8.05
2019-03-15T18:35:40.467Z,8.30
2019-03-15T18:38:15.111Z,7.97
2019-03-15T18:40:57.262Z,8.38
2019-03-15T18:43:32.019Z,8.03
2019-03-15T18:46:07.062Z,8.13
2019-03-15T18:48:41.603Z,8.00
2019-03-15T18:51:16.518Z,7.85
2019-03-15T18:53:50.928Z,7.85
2019-03-15T18:56:26.748Z,8.18
2019-03-15T18:59:01.463Z,8.03
2019-03-15T19:01:36.558Z,8.10
2019-03-15T19:04:11.371Z,8.27
2019-03-15T19:06:46.113Z,8.23
2019-03-15T19:09:20.485Z,8.25
2019-03-15T19:11:55.392Z,8.28
2019-03-15T19:14:30.193Z,8.53
2019-03-15T19:17:05.524Z,8.15
2019-03-15T19:19:40.099Z,8.23
2019-03-15T19:22:14.895Z,8.33
2019-03-15T19:24:49.843Z,8.90
2019-03-15T19:27:24.526Z,8.18
2019-03-15T19:29:58.941Z,8.20
2019-03-15T19:32:34.206Z,8.45
2019-03-15T19:35:09.885Z,8.60
2019-03-15T19:37:45.025Z,8.10
2019-03-15T19:40:19.692Z,8.18
2019-03-15T19:42:54.599Z,8.38
2019-03-15T19:45:29.471Z,7.72
2019-03-15T19:48:04.565Z,8.33
2019-03-15T19:50:39.103Z,8.80
2019-03-15T19:53:14.068Z,8.40
2019-03-15T19:55:48.836Z,7.85
2019-03-15T19:58:23.749Z,8.23
2019-03-15T20:00:58.550Z,7.50
2019-03-15T20:03:43.561Z,8.15
2019-03-15T20:06:09.442Z,7.83
2019-03-15T20:08:44.054Z,7.85
2019-03-15T20:11:18.920Z,9.30
2019-03-15T20:13:53.466Z,8.40
2019-03-15T20:16:28.758Z,8.28
2019-03-15T20:19:03.600Z,8.18
2019-03-15T20:21:39.054Z,8.18
2019-03-15T20:24:13.942Z,8.13
2019-03-15T20:26:48.461Z,8.10
2019-03-15T20:29:23.686Z,8.80
2019-03-15T20:31:58.362Z,8.65
2019-03-15T20:34:33.151Z,8.15
2019-03-15T20:37:07.822Z,8.18
2019-03-15T20:39:42.242Z,8.65
2019-03-15T20:42:17.304Z,8.80
2019-03-15T20:44:52.165Z,8.93
2019-03-15T20:47:26.342Z,8.30
2019-03-15T20:50:01.602Z,8.50
2019-03-15T20:52:36.343Z,8.65
2019-03-15T20:55:11.109Z,8.73
2019-03-15T20:57:45.767Z,8.68
2019-03-15T21:00:34.300Z,8.63
2019-03-15T21:02:57.960Z,8.28
2019-03-15T21:05:32.332Z,8.83
2019-03-15T21:08:07.277Z,8.95
2019-03-15T21:10:42.751Z,7.87
2019-03-15T21:13:17.700Z,9.05
2019-03-15T21:15:52.360Z,8.38
2019-03-15T21:18:27.288Z,8.63
2019-03-15T21:21:01.912Z,7.90
2019-03-15T21:23:36.997Z,8.13
2019-03-15T21:26:11.715Z,8.28
2019-03-15T21:28:46.519Z,8.45
2019-03-15T21:31:21.320Z,8.35
2019-03-15T21:33:55.931Z,8.43
2019-03-15T21:36:30.292Z,8.40
2019-03-15T21:39:05.485Z,8.40
2019-03-15T21:41:40.573Z,8.60
2019-03-15T21:44:17.329Z,8.90
2019-03-15T21:46:51.191Z,8.38
2019-03-15T21:49:26.081Z,8.15
2019-03-15T21:52:01.099Z,8.38
2019-03-15T21:54:35.476Z,8.43
2019-03-15T21:57:10.428Z,7.65
2019-03-15T21:59:45.534Z,8.65
2019-03-15T22:02:20.041Z,8.13
2019-03-15T22:04:54.551Z,8.73
2019-03-15T22:07:29.830Z,7.80
2019-03-15T22:10:04.861Z,8.63
2019-03-15T22:12:39.478Z,8.50
2019-03-15T22:15:14.616Z,8.50
2019-03-15T22:17:51.445Z,7.87
2019-03-15T22:20:26.437Z,7.90
2019-03-15T22:23:01.167Z,9.80
2019-03-15T22:25:36.542Z,8.50
2019-03-15T22:28:11.370Z,7.65
2019-03-15T22:30:46.316Z,8.28
2019-03-15T22:33:21.153Z,8.33
2019-03-15T22:35:55.451Z,8.15
2019-03-15T22:38:30.623Z,8.08
2019-03-15T22:41:05.417Z,8.33
2019-03-15T22:43:40.415Z,8.73
2019-03-15T22:46:16.836Z,8.30
2019-03-15T22:48:52.532Z,7.95
2019-03-15T22:51:27.221Z,7.72
2019-03-15T22:54:02.621Z,8.13
2019-03-15T22:56:37.371Z,7.90
2019-03-15T22:59:12.679Z,8.33
2019-03-15T23:01:47.457Z,8.00
2019-03-15T23:04:22.200Z,8.23
2019-03-15T23:06:57.155Z,8.20
2019-03-15T23:09:32.575Z,7.95
2019-03-15T23:12:06.757Z,7.85
2019-03-15T23:14:41.554Z,7.73
2019-03-15T23:17:16.284Z,8.50
2019-03-15T23:19:51.247Z,8.75
2019-03-15T23:22:26.029Z,8.38
2019-03-15T23:25:00.821Z,8.27
2019-03-15T23:27:35.018Z,8.60
2019-03-15T23:30:10.210Z,8.17
2019-03-15T23:32:44.847Z,8.00
2019-03-15T23:35:19.450Z,8.40
2019-03-15T23:37:54.447Z,8.65
2019-03-15T23:40:29.230Z,8.98
2019-03-15T23:43:04.048Z,8.80
2019-03-15T23:45:38.579Z,9.70
2019-03-15T23:48:13.261Z,8.85
2019-03-15T23:50:48.157Z,9.15
2019-03-15T23:53:23.189Z,9.60
2019-03-15T23:55:58.147Z,10.28
2019-03-15T23:58:32.885Z,9.88
